WMT7HM LROP-LEPA
Flight info
| Callsign | WMT7HM |
|---|---|
| Flight time | 3h 2m |
| Altitude | 36000 |
| Route | POLUN DCT VIKBI DCT CRV DCT ANASA DCT KATTI DCT ESINO DCT ABIDU DCT GITRI DCT GOKMI DCT SUPUX DCT KUPIM DCT SUXER DCT RIPAL DCT MORSS |
| Aircraft | A20N/M-SDE2E3FGHIRWXY/LB1 |
Departure
| Time | 2026-05-07 16:04 |
|---|---|
| Airport | Bucharest Henri Coandă International Airport (LROP) |
Arrival
| Time | 2026-05-07 19:07 |
|---|---|
| Airport | Palma de Mallorca Airport (LEPA) |
| Time | Latitude | Longitude | Altitude | Speed | Heading |
|---|---|---|---|---|---|
| 2026-05-07 15:44 | 44.56892 | 26.08928 | 322 ft | 0 kts | 173° |
| 2026-05-07 16:01 | 44.56889 | 26.08928 | 320 ft | 2 kts | 173° |
| 2026-05-07 16:01 | 44.56857 | 26.08926 | 322 ft | 6 kts | 213° |
| 2026-05-07 16:01 | 44.56833 | 26.08826 | 319 ft | 15 kts | 263° |
| 2026-05-07 16:01 | 44.56821 | 26.08642 | 322 ft | 22 kts | 263° |
| 2026-05-07 16:02 | 44.56860 | 26.08552 | 322 ft | 8 kts | 8° |
| 2026-05-07 16:02 | 44.56932 | 26.08548 | 321 ft | 13 kts | 353° |
| 2026-05-07 16:02 | 44.57047 | 26.08532 | 322 ft | 19 kts | 354° |
| 2026-05-07 16:02 | 44.57188 | 26.08513 | 322 ft | 22 kts | 355° |
| 2026-05-07 16:03 | 44.57344 | 26.08490 | 321 ft | 23 kts | 353° |
| 2026-05-07 16:03 | 44.57511 | 26.08465 | 321 ft | 25 kts | 354° |
| 2026-05-07 16:03 | 44.57662 | 26.08484 | 320 ft | 16 kts | 53° |
| 2026-05-07 16:03 | 44.57678 | 26.08637 | 323 ft | 18 kts | 84° |
| 2026-05-07 16:04 | 44.57709 | 26.09069 | 322 ft | 78 kts | 85° |
| 2026-05-07 16:04 | 44.57787 | 26.10096 | 320 ft | 131 kts | 84° |
| 2026-05-07 16:04 | 44.57891 | 26.11553 | 512 ft | 160 kts | 86° |
| 2026-05-07 16:04 | 44.57985 | 26.13107 | 1155 ft | 160 kts | 88° |
| 2026-05-07 16:05 | 44.58083 | 26.14706 | 1780 ft | 170 kts | 89° |
| 2026-05-07 16:05 | 44.58173 | 26.16422 | 2231 ft | 185 kts | 88° |
| 2026-05-07 16:05 | 44.58278 | 26.18285 | 2707 ft | 198 kts | 88° |
| 2026-05-07 16:05 | 44.58390 | 26.20241 | 3206 ft | 209 kts | 88° |
| 2026-05-07 16:06 | 44.58533 | 26.22373 | 3636 ft | 229 kts | 86° |
| 2026-05-07 16:06 | 44.58717 | 26.24628 | 3940 ft | 246 kts | 84° |
| 2026-05-07 16:06 | 44.58964 | 26.27154 | 4243 ft | 271 kts | 83° |
| 2026-05-07 16:06 | 44.58946 | 26.29804 | 4525 ft | 273 kts | 106° |
| 2026-05-07 16:07 | 44.58098 | 26.32161 | 4811 ft | 272 kts | 133° |
| 2026-05-07 16:07 | 44.56587 | 26.33692 | 5074 ft | 269 kts | 161° |
| 2026-05-07 16:07 | 44.54776 | 26.34046 | 5417 ft | 269 kts | 189° |
| 2026-05-07 16:07 | 44.53048 | 26.33105 | 6197 ft | 268 kts | 218° |
| 2026-05-07 16:08 | 44.51767 | 26.31233 | 7224 ft | 268 kts | 236° |
| 2026-05-07 16:08 | 44.50847 | 26.28945 | 8137 ft | 271 kts | 246° |
| 2026-05-07 16:08 | 44.50141 | 26.26483 | 9061 ft | 275 kts | 250° |
| 2026-05-07 16:08 | 44.49513 | 26.23935 | 9992 ft | 278 kts | 252° |
| 2026-05-07 16:09 | 44.48890 | 26.21308 | 10577 ft | 294 kts | 252° |
| 2026-05-07 16:09 | 44.48209 | 26.18472 | 10880 ft | 318 kts | 251° |
| 2026-05-07 16:09 | 44.47479 | 26.15484 | 11342 ft | 333 kts | 251° |
| 2026-05-07 16:09 | 44.46706 | 26.12371 | 12167 ft | 337 kts | 251° |
| 2026-05-07 16:10 | 44.45924 | 26.09244 | 12978 ft | 342 kts | 250° |
| 2026-05-07 16:10 | 44.45130 | 26.06078 | 13758 ft | 347 kts | 250° |
| 2026-05-07 16:10 | 44.44323 | 26.02871 | 14504 ft | 351 kts | 250° |
| 2026-05-07 16:10 | 44.43508 | 25.99633 | 15242 ft | 355 kts | 250° |
| 2026-05-07 16:11 | 44.42693 | 25.96398 | 15948 ft | 359 kts | 250° |
| 2026-05-07 16:11 | 44.41859 | 25.93093 | 16652 ft | 362 kts | 251° |
| 2026-05-07 16:11 | 44.41015 | 25.89750 | 17335 ft | 366 kts | 251° |
| 2026-05-07 16:11 | 44.40162 | 25.86377 | 18034 ft | 370 kts | 251° |
| 2026-05-07 16:12 | 44.39297 | 25.82962 | 18662 ft | 374 kts | 251° |
| 2026-05-07 16:12 | 44.38427 | 25.79531 | 19260 ft | 377 kts | 251° |
| 2026-05-07 16:12 | 44.37544 | 25.76055 | 19861 ft | 380 kts | 251° |
| 2026-05-07 16:12 | 44.36655 | 25.72559 | 20441 ft | 384 kts | 251° |
| 2026-05-07 16:13 | 44.35756 | 25.69030 | 21036 ft | 387 kts | 251° |
| 2026-05-07 16:13 | 44.34849 | 25.65472 | 21624 ft | 390 kts | 251° |
| 2026-05-07 16:13 | 44.33933 | 25.61885 | 22198 ft | 393 kts | 251° |
| 2026-05-07 16:13 | 44.33008 | 25.58271 | 22760 ft | 397 kts | 251° |
| 2026-05-07 16:14 | 44.32076 | 25.54631 | 23332 ft | 400 kts | 251° |
| 2026-05-07 16:14 | 44.31134 | 25.50957 | 23830 ft | 403 kts | 251° |
| 2026-05-07 16:14 | 44.30183 | 25.47258 | 24338 ft | 405 kts | 251° |
| 2026-05-07 16:14 | 44.29227 | 25.43546 | 24814 ft | 408 kts | 251° |
| 2026-05-07 16:15 | 44.28264 | 25.39807 | 25271 ft | 410 kts | 251° |
| 2026-05-07 16:15 | 44.27305 | 25.36094 | 25720 ft | 413 kts | 251° |
| 2026-05-07 16:15 | 44.26327 | 25.32309 | 26168 ft | 415 kts | 251° |
| 2026-05-07 16:15 | 44.25343 | 25.28512 | 26620 ft | 417 kts | 251° |
| 2026-05-07 16:16 | 44.24500 | 25.24623 | 27047 ft | 419 kts | 258° |
| 2026-05-07 16:16 | 44.24035 | 25.20600 | 27468 ft | 421 kts | 265° |
| 2026-05-07 16:16 | 44.23954 | 25.16514 | 27893 ft | 422 kts | 272° |
| 2026-05-07 16:16 | 44.24124 | 25.12415 | 28290 ft | 424 kts | 274° |
| 2026-05-07 16:17 | 44.24292 | 25.08303 | 28686 ft | 426 kts | 273° |
| 2026-05-07 16:17 | 44.24452 | 25.04226 | 29073 ft | 428 kts | 273° |
| 2026-05-07 16:17 | 44.24611 | 25.00077 | 29459 ft | 429 kts | 273° |
| 2026-05-07 16:17 | 44.24768 | 24.95906 | 29824 ft | 431 kts | 273° |
| 2026-05-07 16:18 | 44.24923 | 24.91724 | 30184 ft | 433 kts | 273° |
| 2026-05-07 16:18 | 44.25078 | 24.87524 | 30530 ft | 434 kts | 273° |
| 2026-05-07 16:18 | 44.25232 | 24.83313 | 30879 ft | 435 kts | 273° |
| 2026-05-07 16:18 | 44.25385 | 24.79088 | 31225 ft | 435 kts | 273° |
| 2026-05-07 16:19 | 44.25536 | 24.74884 | 31638 ft | 434 kts | 272° |
| 2026-05-07 16:19 | 44.25685 | 24.70681 | 32081 ft | 432 kts | 272° |
| 2026-05-07 16:19 | 44.25832 | 24.66492 | 32504 ft | 431 kts | 273° |
| 2026-05-07 16:19 | 44.26126 | 24.62346 | 32898 ft | 429 kts | 277° |
| 2026-05-07 16:20 | 44.26482 | 24.58209 | 33291 ft | 428 kts | 277° |
| 2026-05-07 16:20 | 44.26834 | 24.54087 | 33681 ft | 427 kts | 276° |
| 2026-05-07 16:20 | 44.27176 | 24.50032 | 34063 ft | 425 kts | 277° |
| 2026-05-07 16:20 | 44.27519 | 24.45938 | 34358 ft | 425 kts | 276° |
| 2026-05-07 16:21 | 44.27861 | 24.41830 | 34645 ft | 424 kts | 276° |
| 2026-05-07 16:21 | 44.28200 | 24.37736 | 34930 ft | 424 kts | 276° |
| 2026-05-07 16:21 | 44.28536 | 24.33653 | 35200 ft | 423 kts | 276° |
| 2026-05-07 16:21 | 44.28871 | 24.29580 | 35478 ft | 422 kts | 276° |
| 2026-05-07 16:22 | 44.29203 | 24.25511 | 35727 ft | 422 kts | 276° |
| 2026-05-07 16:22 | 44.29536 | 24.21429 | 35976 ft | 422 kts | 276° |
| 2026-05-07 16:22 | 44.29865 | 24.17367 | 36047 ft | 421 kts | 276° |
| 2026-05-07 16:23 | 44.30517 | 24.09257 | 36047 ft | 420 kts | 276° |
| 2026-05-07 16:23 | 44.31164 | 24.01143 | 36048 ft | 420 kts | 276° |
| 2026-05-07 16:24 | 44.31784 | 23.93032 | 36047 ft | 420 kts | 274° |
| 2026-05-07 16:24 | 44.31862 | 23.84924 | 36048 ft | 420 kts | 270° |
| 2026-05-07 16:25 | 44.31865 | 23.76766 | 36047 ft | 419 kts | 270° |
| 2026-05-07 16:25 | 44.31864 | 23.68615 | 36048 ft | 419 kts | 270° |
| 2026-05-07 16:26 | 44.31854 | 23.60459 | 36047 ft | 419 kts | 270° |
| 2026-05-07 16:26 | 44.31838 | 23.52372 | 36048 ft | 419 kts | 269° |
| 2026-05-07 16:27 | 44.31816 | 23.44235 | 36045 ft | 419 kts | 269° |
| 2026-05-07 16:27 | 44.31788 | 23.36085 | 36050 ft | 419 kts | 269° |
| 2026-05-07 16:28 | 44.31753 | 23.27945 | 36030 ft | 419 kts | 269° |
| 2026-05-07 16:28 | 44.31714 | 23.19806 | 36047 ft | 418 kts | 269° |
| 2026-05-07 16:29 | 44.31669 | 23.11726 | 36047 ft | 419 kts | 269° |
| 2026-05-07 16:29 | 44.31617 | 23.03597 | 36045 ft | 418 kts | 269° |
| 2026-05-07 16:30 | 44.31561 | 22.95461 | 36048 ft | 418 kts | 269° |
| 2026-05-07 16:30 | 44.31498 | 22.87331 | 36051 ft | 418 kts | 269° |
| 2026-05-07 16:31 | 44.31430 | 22.79205 | 36046 ft | 418 kts | 269° |
| 2026-05-07 16:31 | 44.31356 | 22.71131 | 36040 ft | 418 kts | 269° |
| 2026-05-07 16:32 | 44.31277 | 22.63003 | 36040 ft | 418 kts | 268° |
| 2026-05-07 16:32 | 44.30695 | 22.54937 | 36044 ft | 417 kts | 259° |
| 2026-05-07 16:33 | 44.29165 | 22.47132 | 36048 ft | 418 kts | 251° |
| 2026-05-07 16:33 | 44.27281 | 22.39452 | 36049 ft | 418 kts | 252° |
| 2026-05-07 16:34 | 44.25425 | 22.31799 | 36041 ft | 418 kts | 251° |
| 2026-05-07 16:34 | 44.23554 | 22.24110 | 36045 ft | 418 kts | 251° |
| 2026-05-07 16:35 | 44.21678 | 22.16428 | 36052 ft | 419 kts | 251° |
| 2026-05-07 16:35 | 44.19791 | 22.08745 | 36052 ft | 419 kts | 251° |
| 2026-05-07 16:36 | 44.17907 | 22.01108 | 36046 ft | 419 kts | 251° |
| 2026-05-07 16:36 | 44.16003 | 21.93419 | 36048 ft | 419 kts | 251° |
| 2026-05-07 16:37 | 44.14097 | 21.85742 | 36037 ft | 419 kts | 251° |
| 2026-05-07 16:37 | 44.12187 | 21.78080 | 36038 ft | 419 kts | 251° |
| 2026-05-07 16:38 | 44.10274 | 21.70429 | 36052 ft | 418 kts | 251° |
| 2026-05-07 16:38 | 44.08365 | 21.62822 | 36044 ft | 418 kts | 251° |
| 2026-05-07 16:39 | 44.06444 | 21.55188 | 36048 ft | 418 kts | 251° |
| 2026-05-07 16:39 | 44.04518 | 21.47565 | 36034 ft | 418 kts | 251° |
| 2026-05-07 16:40 | 44.02591 | 21.39959 | 36044 ft | 417 kts | 251° |
| 2026-05-07 16:40 | 44.00657 | 21.32354 | 36040 ft | 417 kts | 251° |
| 2026-05-07 16:41 | 43.98717 | 21.24746 | 36035 ft | 417 kts | 251° |
| 2026-05-07 16:41 | 43.97100 | 21.18425 | 36034 ft | 418 kts | 251° |
| 2026-05-07 16:42 | 43.95150 | 21.10822 | 36029 ft | 418 kts | 251° |
| 2026-05-07 16:42 | 43.93193 | 21.03219 | 36025 ft | 418 kts | 251° |
| 2026-05-07 16:43 | 43.91248 | 20.95685 | 36026 ft | 418 kts | 251° |
| 2026-05-07 16:43 | 43.89282 | 20.88100 | 36033 ft | 418 kts | 251° |
| 2026-05-07 16:44 | 43.87310 | 20.80510 | 36032 ft | 418 kts | 251° |
| 2026-05-07 16:44 | 43.85337 | 20.72940 | 36019 ft | 417 kts | 251° |
| 2026-05-07 16:45 | 43.83358 | 20.65374 | 36019 ft | 418 kts | 251° |
| 2026-05-07 16:45 | 43.81372 | 20.57802 | 36018 ft | 417 kts | 251° |
| 2026-05-07 16:46 | 43.79388 | 20.50263 | 36020 ft | 417 kts | 251° |
| 2026-05-07 16:46 | 43.77406 | 20.42757 | 36026 ft | 417 kts | 251° |
| 2026-05-07 16:47 | 43.75410 | 20.35220 | 36021 ft | 417 kts | 251° |
| 2026-05-07 16:47 | 43.73412 | 20.27701 | 36026 ft | 416 kts | 251° |
| 2026-05-07 16:48 | 43.71412 | 20.20197 | 36033 ft | 416 kts | 251° |
| 2026-05-07 16:48 | 43.69420 | 20.12744 | 36039 ft | 415 kts | 251° |
| 2026-05-07 16:49 | 43.67417 | 20.05274 | 36025 ft | 415 kts | 251° |
| 2026-05-07 16:49 | 43.65406 | 19.97799 | 36020 ft | 414 kts | 251° |
| 2026-05-07 16:50 | 43.63396 | 19.90350 | 36030 ft | 413 kts | 251° |
| 2026-05-07 16:50 | 43.61384 | 19.82916 | 36022 ft | 413 kts | 250° |
| 2026-05-07 16:51 | 43.59366 | 19.75486 | 36039 ft | 412 kts | 251° |
| 2026-05-07 16:51 | 43.57363 | 19.68132 | 36034 ft | 412 kts | 250° |
| 2026-05-07 16:52 | 43.55344 | 19.60738 | 36021 ft | 412 kts | 250° |
| 2026-05-07 16:52 | 43.53321 | 19.53354 | 36018 ft | 410 kts | 250° |
| 2026-05-07 16:53 | 43.51297 | 19.45989 | 36022 ft | 411 kts | 250° |
| 2026-05-07 16:53 | 43.49280 | 19.38670 | 36045 ft | 411 kts | 250° |
| 2026-05-07 16:54 | 43.47247 | 19.31316 | 36035 ft | 409 kts | 250° |
| 2026-05-07 16:54 | 43.45215 | 19.23986 | 36045 ft | 410 kts | 250° |
| 2026-05-07 16:55 | 43.43189 | 19.16701 | 36031 ft | 409 kts | 250° |
| 2026-05-07 16:55 | 43.41153 | 19.09401 | 36033 ft | 408 kts | 250° |
| 2026-05-07 16:56 | 43.39114 | 19.02112 | 36051 ft | 407 kts | 250° |
| 2026-05-07 16:56 | 43.36063 | 18.91248 | 36043 ft | 407 kts | 250° |
| 2026-05-07 16:57 | 43.34022 | 18.84001 | 36061 ft | 406 kts | 250° |
| 2026-05-07 16:57 | 43.31977 | 18.76765 | 36052 ft | 406 kts | 250° |
| 2026-05-07 16:58 | 43.29942 | 18.69586 | 36052 ft | 405 kts | 250° |
| 2026-05-07 16:58 | 43.27894 | 18.62381 | 36073 ft | 404 kts | 250° |
| 2026-05-07 16:59 | 43.25843 | 18.55186 | 36073 ft | 404 kts | 250° |
| 2026-05-07 16:59 | 43.23794 | 18.48023 | 36058 ft | 403 kts | 250° |
| 2026-05-07 17:00 | 43.21762 | 18.40931 | 36082 ft | 401 kts | 250° |
| 2026-05-07 17:00 | 43.19714 | 18.33808 | 36075 ft | 403 kts | 250° |
| 2026-05-07 17:01 | 43.17658 | 18.26677 | 36076 ft | 402 kts | 250° |
| 2026-05-07 17:01 | 43.15599 | 18.19556 | 36084 ft | 402 kts | 250° |
| 2026-05-07 17:02 | 43.13532 | 18.12427 | 36067 ft | 402 kts | 250° |
| 2026-05-07 17:02 | 43.11462 | 18.05309 | 36077 ft | 402 kts | 250° |
| 2026-05-07 17:03 | 43.09402 | 17.98243 | 36056 ft | 402 kts | 250° |
| 2026-05-07 17:03 | 43.07327 | 17.91143 | 36068 ft | 401 kts | 250° |
| 2026-05-07 17:04 | 43.05250 | 17.84061 | 36077 ft | 401 kts | 249° |
| 2026-05-07 17:04 | 43.03168 | 17.76978 | 36063 ft | 400 kts | 249° |
| 2026-05-07 17:05 | 43.01100 | 17.69963 | 36062 ft | 401 kts | 249° |
| 2026-05-07 17:05 | 42.99019 | 17.62924 | 36053 ft | 399 kts | 249° |
| 2026-05-07 17:06 | 42.96936 | 17.55900 | 36057 ft | 398 kts | 249° |
| 2026-05-07 17:06 | 42.94855 | 17.48898 | 36051 ft | 396 kts | 249° |
| 2026-05-07 17:07 | 42.92781 | 17.41939 | 36042 ft | 395 kts | 250° |
| 2026-05-07 17:07 | 42.90709 | 17.35011 | 36053 ft | 393 kts | 250° |
| 2026-05-07 17:08 | 42.88643 | 17.28115 | 36048 ft | 392 kts | 250° |
| 2026-05-07 17:08 | 42.86593 | 17.21293 | 36032 ft | 390 kts | 250° |
| 2026-05-07 17:09 | 42.84533 | 17.14455 | 36033 ft | 389 kts | 250° |
| 2026-05-07 17:09 | 42.82480 | 17.07657 | 36048 ft | 387 kts | 250° |
| 2026-05-07 17:10 | 42.80430 | 17.00889 | 36042 ft | 385 kts | 250° |
| 2026-05-07 17:10 | 42.78390 | 16.94172 | 36032 ft | 383 kts | 250° |
| 2026-05-07 17:11 | 42.76348 | 16.87463 | 36032 ft | 382 kts | 250° |
| 2026-05-07 17:11 | 42.74315 | 16.80802 | 36021 ft | 380 kts | 250° |
| 2026-05-07 17:12 | 42.72295 | 16.74201 | 36029 ft | 379 kts | 250° |
| 2026-05-07 17:12 | 42.70268 | 16.67594 | 36020 ft | 378 kts | 250° |
| 2026-05-07 17:13 | 42.68243 | 16.61010 | 36026 ft | 377 kts | 249° |
| 2026-05-07 17:13 | 42.66217 | 16.54437 | 36015 ft | 376 kts | 249° |
| 2026-05-07 17:14 | 42.64205 | 16.47928 | 36024 ft | 376 kts | 249° |
| 2026-05-07 17:14 | 42.62177 | 16.41381 | 36010 ft | 376 kts | 249° |
| 2026-05-07 17:15 | 42.60148 | 16.34850 | 36017 ft | 375 kts | 249° |
| 2026-05-07 17:15 | 42.58119 | 16.28328 | 36017 ft | 375 kts | 249° |
| 2026-05-07 17:16 | 42.56087 | 16.21807 | 36005 ft | 375 kts | 249° |
| 2026-05-07 17:16 | 42.54051 | 16.15287 | 36008 ft | 374 kts | 249° |
| 2026-05-07 17:17 | 42.52015 | 16.08784 | 36004 ft | 375 kts | 249° |
| 2026-05-07 17:17 | 42.50035 | 16.02304 | 35995 ft | 374 kts | 251° |
| 2026-05-07 17:18 | 42.48440 | 15.95581 | 35990 ft | 374 kts | 253° |
| 2026-05-07 17:18 | 42.46878 | 15.88860 | 36002 ft | 374 kts | 252° |
| 2026-05-07 17:19 | 42.45264 | 15.82145 | 35998 ft | 374 kts | 252° |
| 2026-05-07 17:19 | 42.43635 | 15.75450 | 35986 ft | 374 kts | 252° |
| 2026-05-07 17:20 | 42.42008 | 15.68797 | 35985 ft | 374 kts | 252° |
| 2026-05-07 17:20 | 42.40366 | 15.62103 | 35984 ft | 375 kts | 252° |
| 2026-05-07 17:21 | 42.38720 | 15.55410 | 35991 ft | 375 kts | 252° |
| 2026-05-07 17:21 | 42.37068 | 15.48714 | 35985 ft | 376 kts | 252° |
| 2026-05-07 17:22 | 42.35408 | 15.42006 | 35991 ft | 376 kts | 251° |
| 2026-05-07 17:22 | 42.33743 | 15.35294 | 35983 ft | 377 kts | 251° |
| 2026-05-07 17:23 | 42.32071 | 15.28573 | 35992 ft | 377 kts | 251° |
| 2026-05-07 17:23 | 42.30406 | 15.21902 | 35999 ft | 377 kts | 251° |
| 2026-05-07 17:24 | 42.28722 | 15.15173 | 35995 ft | 378 kts | 251° |
| 2026-05-07 17:24 | 42.27030 | 15.08434 | 35991 ft | 378 kts | 251° |
| 2026-05-07 17:25 | 42.25344 | 15.01732 | 35998 ft | 379 kts | 251° |
| 2026-05-07 17:25 | 42.23644 | 14.95000 | 35992 ft | 379 kts | 251° |
| 2026-05-07 17:26 | 42.21956 | 14.88349 | 35994 ft | 365 kts | 252° |
| 2026-05-07 17:26 | 42.20314 | 14.81873 | 35994 ft | 368 kts | 252° |
| 2026-05-07 17:27 | 42.18662 | 14.75378 | 35997 ft | 367 kts | 252° |
| 2026-05-07 17:27 | 42.16999 | 14.68859 | 35996 ft | 368 kts | 252° |
| 2026-05-07 17:28 | 42.15327 | 14.62328 | 35999 ft | 368 kts | 252° |
| 2026-05-07 17:28 | 42.13936 | 14.56907 | 35999 ft | 368 kts | 252° |
| 2026-05-07 17:29 | 42.12259 | 14.50385 | 36001 ft | 368 kts | 252° |
| 2026-05-07 17:29 | 42.10303 | 14.42807 | 36001 ft | 368 kts | 251° |
| 2026-05-07 17:30 | 42.08890 | 14.37345 | 36011 ft | 368 kts | 251° |
| 2026-05-07 17:30 | 42.07209 | 14.30861 | 36010 ft | 371 kts | 251° |
| 2026-05-07 17:31 | 42.05509 | 14.24327 | 36003 ft | 368 kts | 251° |
| 2026-05-07 17:31 | 42.03811 | 14.17817 | 36009 ft | 368 kts | 251° |
| 2026-05-07 17:32 | 42.02109 | 14.11299 | 36004 ft | 370 kts | 251° |
| 2026-05-07 17:32 | 42.00398 | 14.04775 | 36003 ft | 369 kts | 251° |
| 2026-05-07 17:33 | 41.98688 | 13.98271 | 36007 ft | 370 kts | 251° |
| 2026-05-07 17:33 | 41.96976 | 13.91773 | 36005 ft | 370 kts | 251° |
| 2026-05-07 17:34 | 41.95254 | 13.85257 | 35992 ft | 371 kts | 251° |
| 2026-05-07 17:34 | 41.93530 | 13.78748 | 35992 ft | 367 kts | 251° |
| 2026-05-07 17:35 | 41.91799 | 13.72238 | 35981 ft | 370 kts | 251° |
| 2026-05-07 17:35 | 41.90072 | 13.65762 | 35983 ft | 371 kts | 251° |
| 2026-05-07 17:36 | 41.88326 | 13.59219 | 35974 ft | 371 kts | 251° |
| 2026-05-07 17:36 | 41.86581 | 13.52723 | 35974 ft | 371 kts | 250° |
| 2026-05-07 17:37 | 41.84829 | 13.46187 | 35970 ft | 371 kts | 250° |
| 2026-05-07 17:37 | 41.83080 | 13.39683 | 35976 ft | 372 kts | 251° |
| 2026-05-07 17:38 | 41.81319 | 13.33157 | 35963 ft | 371 kts | 250° |
| 2026-05-07 17:38 | 41.79569 | 13.26702 | 35965 ft | 371 kts | 250° |
| 2026-05-07 17:39 | 41.77799 | 13.20179 | 35959 ft | 372 kts | 250° |
| 2026-05-07 17:39 | 41.76027 | 13.13668 | 35961 ft | 372 kts | 250° |
| 2026-05-07 17:40 | 41.74251 | 13.07158 | 35959 ft | 372 kts | 250° |
| 2026-05-07 17:40 | 41.72470 | 13.00647 | 35940 ft | 373 kts | 250° |
| 2026-05-07 17:41 | 41.70685 | 12.94139 | 35938 ft | 372 kts | 250° |
| 2026-05-07 17:41 | 41.68903 | 12.87656 | 35940 ft | 373 kts | 250° |
| 2026-05-07 17:42 | 41.67110 | 12.81151 | 35938 ft | 373 kts | 250° |
| 2026-05-07 17:42 | 41.65305 | 12.74618 | 35936 ft | 374 kts | 250° |
| 2026-05-07 17:43 | 41.63493 | 12.68081 | 35957 ft | 374 kts | 250° |
| 2026-05-07 17:43 | 41.61693 | 12.61603 | 35960 ft | 374 kts | 250° |
| 2026-05-07 17:44 | 41.59871 | 12.55064 | 35962 ft | 375 kts | 250° |
| 2026-05-07 17:44 | 41.58049 | 12.48539 | 35964 ft | 375 kts | 250° |
| 2026-05-07 17:45 | 41.56221 | 12.42011 | 35964 ft | 375 kts | 250° |
| 2026-05-07 17:45 | 41.54386 | 12.35475 | 35962 ft | 376 kts | 250° |
| 2026-05-07 17:46 | 41.52558 | 12.28977 | 35954 ft | 376 kts | 250° |
| 2026-05-07 17:46 | 41.50709 | 12.22426 | 35947 ft | 377 kts | 249° |
| 2026-05-07 17:47 | 41.48857 | 12.15877 | 35947 ft | 377 kts | 249° |
| 2026-05-07 17:47 | 41.47009 | 12.09360 | 35943 ft | 377 kts | 249° |
| 2026-05-07 17:48 | 41.45148 | 12.02816 | 35940 ft | 378 kts | 249° |
| 2026-05-07 17:48 | 41.43280 | 11.96263 | 35939 ft | 378 kts | 249° |
| 2026-05-07 17:49 | 41.41410 | 11.89711 | 35940 ft | 378 kts | 249° |
| 2026-05-07 17:49 | 41.39536 | 11.83157 | 35943 ft | 378 kts | 249° |
| 2026-05-07 17:50 | 41.37670 | 11.76593 | 35947 ft | 379 kts | 250° |
| 2026-05-07 17:50 | 41.35888 | 11.69993 | 35949 ft | 379 kts | 250° |
| 2026-05-07 17:51 | 41.34117 | 11.63424 | 35951 ft | 379 kts | 250° |
| 2026-05-07 17:51 | 41.32322 | 11.56823 | 35952 ft | 379 kts | 250° |
| 2026-05-07 17:52 | 41.30517 | 11.50217 | 35955 ft | 380 kts | 250° |
| 2026-05-07 17:52 | 41.28709 | 11.43613 | 35953 ft | 380 kts | 250° |
| 2026-05-07 17:53 | 41.26894 | 11.37005 | 35953 ft | 380 kts | 249° |
| 2026-05-07 17:53 | 41.25075 | 11.30399 | 35953 ft | 380 kts | 249° |
| 2026-05-07 17:54 | 41.23260 | 11.23825 | 35953 ft | 381 kts | 249° |
| 2026-05-07 17:54 | 41.21427 | 11.17202 | 35955 ft | 381 kts | 249° |
| 2026-05-07 17:55 | 41.19590 | 11.10581 | 35963 ft | 382 kts | 249° |
| 2026-05-07 17:55 | 41.17748 | 11.03961 | 35961 ft | 382 kts | 249° |
| 2026-05-07 17:56 | 41.15902 | 10.97343 | 35959 ft | 382 kts | 249° |
| 2026-05-07 17:56 | 41.14049 | 10.90718 | 35949 ft | 383 kts | 249° |
| 2026-05-07 17:57 | 41.12509 | 10.85224 | 35950 ft | 383 kts | 249° |
| 2026-05-07 17:57 | 41.10331 | 10.77477 | 35964 ft | 383 kts | 249° |
| 2026-05-07 17:58 | 41.08463 | 10.70848 | 35962 ft | 384 kts | 249° |
| 2026-05-07 17:58 | 41.06599 | 10.64255 | 35949 ft | 384 kts | 249° |
| 2026-05-07 17:59 | 41.04721 | 10.57624 | 35960 ft | 384 kts | 249° |
| 2026-05-07 17:59 | 41.02837 | 10.50993 | 35950 ft | 385 kts | 249° |
| 2026-05-07 18:00 | 41.00951 | 10.44371 | 35954 ft | 385 kts | 249° |
| 2026-05-07 18:00 | 40.99054 | 10.37727 | 35951 ft | 385 kts | 249° |
| 2026-05-07 18:01 | 40.97155 | 10.31098 | 35951 ft | 385 kts | 249° |
| 2026-05-07 18:01 | 40.95247 | 10.24463 | 35953 ft | 385 kts | 248° |
| 2026-05-07 18:02 | 40.92398 | 10.14569 | 35958 ft | 385 kts | 249° |
| 2026-05-07 18:03 | 40.90727 | 10.07834 | 35961 ft | 385 kts | 251° |
| 2026-05-07 18:03 | 40.89113 | 10.01072 | 35962 ft | 386 kts | 251° |
| 2026-05-07 18:04 | 40.87458 | 9.94312 | 35962 ft | 386 kts | 251° |
| 2026-05-07 18:04 | 40.85784 | 9.87553 | 35958 ft | 386 kts | 251° |
| 2026-05-07 18:05 | 40.84117 | 9.80848 | 35965 ft | 386 kts | 251° |
| 2026-05-07 18:05 | 40.82438 | 9.74109 | 35960 ft | 386 kts | 251° |
| 2026-05-07 18:06 | 40.80754 | 9.67370 | 35965 ft | 386 kts | 251° |
| 2026-05-07 18:06 | 40.79078 | 9.60678 | 35963 ft | 386 kts | 250° |
| 2026-05-07 18:07 | 40.77383 | 9.53936 | 35960 ft | 387 kts | 250° |
| 2026-05-07 18:07 | 40.75682 | 9.47188 | 35967 ft | 387 kts | 250° |
| 2026-05-07 18:08 | 40.73980 | 9.40450 | 35971 ft | 387 kts | 250° |
| 2026-05-07 18:08 | 40.72274 | 9.33719 | 35956 ft | 387 kts | 250° |
| 2026-05-07 18:09 | 40.70575 | 9.27031 | 35955 ft | 388 kts | 250° |
| 2026-05-07 18:09 | 40.68860 | 9.20301 | 35955 ft | 387 kts | 250° |
| 2026-05-07 18:10 | 40.67141 | 9.13574 | 35953 ft | 388 kts | 250° |
| 2026-05-07 18:10 | 40.65418 | 9.06849 | 35955 ft | 388 kts | 250° |
| 2026-05-07 18:11 | 40.63688 | 9.00117 | 35949 ft | 388 kts | 250° |
| 2026-05-07 18:11 | 40.61954 | 8.93389 | 35948 ft | 388 kts | 250° |
| 2026-05-07 18:12 | 40.60224 | 8.86694 | 35942 ft | 388 kts | 250° |
| 2026-05-07 18:12 | 40.58484 | 8.79975 | 35940 ft | 388 kts | 250° |
| 2026-05-07 18:13 | 40.56730 | 8.73228 | 35948 ft | 390 kts | 250° |
| 2026-05-07 18:13 | 40.55272 | 8.67630 | 35939 ft | 388 kts | 250° |
| 2026-05-07 18:14 | 40.53520 | 8.60918 | 35940 ft | 388 kts | 250° |
| 2026-05-07 18:14 | 40.51477 | 8.53117 | 35939 ft | 388 kts | 250° |
| 2026-05-07 18:15 | 40.50002 | 8.47503 | 35940 ft | 388 kts | 249° |
| 2026-05-07 18:15 | 40.48250 | 8.40848 | 35937 ft | 388 kts | 249° |
| 2026-05-07 18:16 | 40.46481 | 8.34148 | 35935 ft | 387 kts | 249° |
| 2026-05-07 18:16 | 40.44732 | 8.27462 | 35936 ft | 387 kts | 251° |
| 2026-05-07 18:17 | 40.43616 | 8.20525 | 35936 ft | 390 kts | 260° |
| 2026-05-07 18:17 | 40.43205 | 8.13459 | 35933 ft | 391 kts | 262° |
| 2026-05-07 18:18 | 40.42817 | 8.06346 | 35934 ft | 391 kts | 262° |
| 2026-05-07 18:18 | 40.42364 | 7.99256 | 35933 ft | 389 kts | 259° |
| 2026-05-07 18:19 | 40.41486 | 7.92263 | 35932 ft | 388 kts | 257° |
| 2026-05-07 18:19 | 40.40604 | 7.85264 | 35932 ft | 388 kts | 257° |
| 2026-05-07 18:20 | 40.39719 | 7.78275 | 35931 ft | 388 kts | 257° |
| 2026-05-07 18:20 | 40.38828 | 7.71277 | 35937 ft | 388 kts | 257° |
| 2026-05-07 18:21 | 40.37939 | 7.64338 | 35938 ft | 388 kts | 257° |
| 2026-05-07 18:21 | 40.37040 | 7.57360 | 35925 ft | 388 kts | 257° |
| 2026-05-07 18:21 | 40.36588 | 7.53860 | 35736 ft | 389 kts | 257° |
| 2026-05-07 18:22 | 40.36135 | 7.50360 | 35484 ft | 389 kts | 257° |
| 2026-05-07 18:22 | 40.35834 | 7.48042 | 35325 ft | 390 kts | 257° |
| 2026-05-07 18:22 | 40.35221 | 7.43335 | 34999 ft | 391 kts | 257° |
| 2026-05-07 18:22 | 40.34766 | 7.39849 | 34762 ft | 393 kts | 257° |
| 2026-05-07 18:23 | 40.34304 | 7.36317 | 34523 ft | 394 kts | 257° |
| 2026-05-07 18:23 | 40.33840 | 7.32773 | 34288 ft | 395 kts | 257° |
| 2026-05-07 18:23 | 40.33373 | 7.29217 | 34057 ft | 396 kts | 256° |
| 2026-05-07 18:23 | 40.32904 | 7.25667 | 33802 ft | 397 kts | 256° |
| 2026-05-07 18:24 | 40.32431 | 7.22091 | 33528 ft | 399 kts | 256° |
| 2026-05-07 18:24 | 40.31956 | 7.18498 | 33257 ft | 401 kts | 256° |
| 2026-05-07 18:24 | 40.31477 | 7.14888 | 33019 ft | 402 kts | 256° |
| 2026-05-07 18:24 | 40.30997 | 7.11271 | 32807 ft | 404 kts | 256° |
| 2026-05-07 18:25 | 40.30514 | 7.07645 | 32610 ft | 405 kts | 256° |
| 2026-05-07 18:25 | 40.30026 | 7.03995 | 32390 ft | 407 kts | 256° |
| 2026-05-07 18:25 | 40.29536 | 7.00338 | 32189 ft | 408 kts | 256° |
| 2026-05-07 18:25 | 40.29044 | 6.96677 | 31983 ft | 409 kts | 256° |
| 2026-05-07 18:26 | 40.28549 | 6.93000 | 31772 ft | 411 kts | 256° |
| 2026-05-07 18:26 | 40.28059 | 6.89363 | 31581 ft | 412 kts | 256° |
| 2026-05-07 18:26 | 40.27558 | 6.85661 | 31376 ft | 413 kts | 256° |
| 2026-05-07 18:26 | 40.27054 | 6.81949 | 31184 ft | 414 kts | 256° |
| 2026-05-07 18:27 | 40.26548 | 6.78228 | 30983 ft | 415 kts | 256° |
| 2026-05-07 18:27 | 40.26041 | 6.74508 | 30794 ft | 416 kts | 256° |
| 2026-05-07 18:27 | 40.25529 | 6.70762 | 30596 ft | 417 kts | 256° |
| 2026-05-07 18:27 | 40.25018 | 6.67032 | 30403 ft | 416 kts | 256° |
| 2026-05-07 18:28 | 40.24505 | 6.63297 | 30208 ft | 416 kts | 256° |
| 2026-05-07 18:28 | 40.23993 | 6.59573 | 30020 ft | 416 kts | 256° |
| 2026-05-07 18:28 | 40.23479 | 6.55849 | 29804 ft | 415 kts | 256° |
| 2026-05-07 18:28 | 40.22964 | 6.52130 | 29585 ft | 415 kts | 256° |
| 2026-05-07 18:29 | 40.22450 | 6.48421 | 29356 ft | 414 kts | 256° |
| 2026-05-07 18:29 | 40.21935 | 6.44716 | 29139 ft | 413 kts | 256° |
| 2026-05-07 18:29 | 40.21420 | 6.41017 | 28919 ft | 413 kts | 256° |
| 2026-05-07 18:29 | 40.20909 | 6.37362 | 28703 ft | 412 kts | 256° |
| 2026-05-07 18:30 | 40.20392 | 6.33668 | 28489 ft | 411 kts | 256° |
| 2026-05-07 18:30 | 40.19876 | 6.29997 | 28279 ft | 411 kts | 256° |
| 2026-05-07 18:30 | 40.19360 | 6.26328 | 28061 ft | 410 kts | 256° |
| 2026-05-07 18:30 | 40.18843 | 6.22665 | 27853 ft | 409 kts | 256° |
| 2026-05-07 18:31 | 40.18326 | 6.19009 | 27644 ft | 409 kts | 256° |
| 2026-05-07 18:31 | 40.17807 | 6.15350 | 27435 ft | 408 kts | 256° |
| 2026-05-07 18:31 | 40.17289 | 6.11703 | 27235 ft | 407 kts | 256° |
| 2026-05-07 18:31 | 40.16770 | 6.08064 | 27026 ft | 407 kts | 256° |
| 2026-05-07 18:32 | 40.16250 | 6.04426 | 26827 ft | 406 kts | 256° |
| 2026-05-07 18:32 | 40.15732 | 6.00807 | 26622 ft | 405 kts | 256° |
| 2026-05-07 18:32 | 40.15219 | 5.97233 | 26433 ft | 404 kts | 256° |
| 2026-05-07 18:32 | 40.14700 | 5.93625 | 26229 ft | 404 kts | 256° |
| 2026-05-07 18:33 | 40.14181 | 5.90022 | 26036 ft | 403 kts | 256° |
| 2026-05-07 18:33 | 40.13662 | 5.86424 | 25838 ft | 402 kts | 256° |
| 2026-05-07 18:33 | 40.13147 | 5.82835 | 25641 ft | 401 kts | 257° |
| 2026-05-07 18:33 | 40.12643 | 5.79255 | 25450 ft | 400 kts | 257° |
| 2026-05-07 18:34 | 40.12141 | 5.75671 | 25258 ft | 400 kts | 257° |
| 2026-05-07 18:34 | 40.11640 | 5.72108 | 25069 ft | 399 kts | 257° |
| 2026-05-07 18:34 | 40.11136 | 5.68532 | 24881 ft | 398 kts | 257° |
| 2026-05-07 18:34 | 40.10633 | 5.64985 | 24694 ft | 397 kts | 257° |
| 2026-05-07 18:35 | 40.10130 | 5.61443 | 24504 ft | 396 kts | 257° |
| 2026-05-07 18:35 | 40.09626 | 5.57911 | 24320 ft | 395 kts | 257° |
| 2026-05-07 18:35 | 40.09128 | 5.54428 | 24138 ft | 394 kts | 257° |
| 2026-05-07 18:35 | 40.08623 | 5.50902 | 23950 ft | 394 kts | 257° |
| 2026-05-07 18:36 | 40.08119 | 5.47392 | 23767 ft | 393 kts | 257° |
| 2026-05-07 18:36 | 40.07616 | 5.43890 | 23589 ft | 392 kts | 257° |
| 2026-05-07 18:36 | 40.07111 | 5.40389 | 23386 ft | 392 kts | 257° |
| 2026-05-07 18:36 | 40.06606 | 5.36887 | 23167 ft | 391 kts | 257° |
| 2026-05-07 18:37 | 40.06103 | 5.33412 | 22954 ft | 390 kts | 257° |
| 2026-05-07 18:37 | 40.05599 | 5.29933 | 22737 ft | 389 kts | 257° |
| 2026-05-07 18:37 | 40.05102 | 5.26518 | 22525 ft | 389 kts | 257° |
| 2026-05-07 18:37 | 40.04591 | 5.23010 | 22317 ft | 388 kts | 257° |
| 2026-05-07 18:38 | 40.04086 | 5.19555 | 22106 ft | 387 kts | 257° |
| 2026-05-07 18:38 | 40.03591 | 5.16166 | 21903 ft | 386 kts | 257° |
| 2026-05-07 18:38 | 40.03086 | 5.12725 | 21696 ft | 385 kts | 257° |
| 2026-05-07 18:38 | 40.02582 | 5.09297 | 21487 ft | 385 kts | 257° |
| 2026-05-07 18:39 | 40.02078 | 5.05874 | 21288 ft | 383 kts | 257° |
| 2026-05-07 18:39 | 40.01571 | 5.02445 | 21088 ft | 383 kts | 257° |
| 2026-05-07 18:39 | 40.01065 | 4.99025 | 20882 ft | 382 kts | 257° |
| 2026-05-07 18:39 | 40.00567 | 4.95666 | 20686 ft | 382 kts | 257° |
| 2026-05-07 18:40 | 40.00063 | 4.92269 | 20485 ft | 381 kts | 257° |
| 2026-05-07 18:40 | 39.99558 | 4.88879 | 20289 ft | 380 kts | 257° |
| 2026-05-07 18:40 | 39.99054 | 4.85499 | 20093 ft | 380 kts | 257° |
| 2026-05-07 18:40 | 39.98548 | 4.82116 | 19946 ft | 378 kts | 257° |
| 2026-05-07 18:41 | 39.98041 | 4.78730 | 19931 ft | 379 kts | 257° |
| 2026-05-07 18:41 | 39.97456 | 4.75425 | 19926 ft | 378 kts | 253° |
| 2026-05-07 18:41 | 39.96770 | 4.72118 | 19804 ft | 378 kts | 253° |
| 2026-05-07 18:41 | 39.96094 | 4.68803 | 19666 ft | 377 kts | 253° |
| 2026-05-07 18:42 | 39.95424 | 4.65508 | 19528 ft | 376 kts | 253° |
| 2026-05-07 18:42 | 39.94753 | 4.62220 | 19348 ft | 376 kts | 253° |
| 2026-05-07 18:42 | 39.94082 | 4.58938 | 19198 ft | 374 kts | 253° |
| 2026-05-07 18:42 | 39.93410 | 4.55662 | 19056 ft | 374 kts | 253° |
| 2026-05-07 18:43 | 39.92738 | 4.52392 | 18921 ft | 373 kts | 253° |
| 2026-05-07 18:43 | 39.92065 | 4.49129 | 18774 ft | 373 kts | 253° |
| 2026-05-07 18:43 | 39.91393 | 4.45869 | 18632 ft | 372 kts | 253° |
| 2026-05-07 18:43 | 39.90719 | 4.42611 | 18498 ft | 372 kts | 252° |
| 2026-05-07 18:44 | 39.90048 | 4.39367 | 18363 ft | 371 kts | 252° |
| 2026-05-07 18:44 | 39.89375 | 4.36117 | 18263 ft | 371 kts | 252° |
| 2026-05-07 18:44 | 39.88702 | 4.32876 | 18139 ft | 370 kts | 252° |
| 2026-05-07 18:44 | 39.88029 | 4.29637 | 18053 ft | 370 kts | 252° |
| 2026-05-07 18:45 | 39.87361 | 4.26434 | 17946 ft | 370 kts | 252° |
| 2026-05-07 18:45 | 39.86652 | 4.23224 | 17845 ft | 368 kts | 249° |
| 2026-05-07 18:45 | 39.85669 | 4.20158 | 17734 ft | 366 kts | 241° |
| 2026-05-07 18:45 | 39.84418 | 4.17280 | 17634 ft | 366 kts | 237° |
| 2026-05-07 18:46 | 39.83122 | 4.14419 | 17530 ft | 366 kts | 238° |
| 2026-05-07 18:46 | 39.81837 | 4.11561 | 17420 ft | 366 kts | 238° |
| 2026-05-07 18:46 | 39.80555 | 4.08705 | 17308 ft | 365 kts | 238° |
| 2026-05-07 18:46 | 39.79274 | 4.05854 | 17206 ft | 365 kts | 238° |
| 2026-05-07 18:47 | 39.77993 | 4.03006 | 17033 ft | 364 kts | 238° |
| 2026-05-07 18:47 | 39.76711 | 4.00159 | 16456 ft | 368 kts | 238° |
| 2026-05-07 18:47 | 39.75410 | 3.97273 | 15553 ft | 370 kts | 238° |
| 2026-05-07 18:47 | 39.74124 | 3.94420 | 14955 ft | 361 kts | 237° |
| 2026-05-07 18:48 | 39.72865 | 3.91632 | 14603 ft | 353 kts | 237° |
| 2026-05-07 18:48 | 39.71643 | 3.88925 | 14365 ft | 342 kts | 237° |
| 2026-05-07 18:48 | 39.70453 | 3.86295 | 14122 ft | 333 kts | 237° |
| 2026-05-07 18:48 | 39.69293 | 3.83737 | 13878 ft | 324 kts | 237° |
| 2026-05-07 18:49 | 39.68165 | 3.81248 | 13637 ft | 316 kts | 237° |
| 2026-05-07 18:49 | 39.67060 | 3.78813 | 13366 ft | 310 kts | 237° |
| 2026-05-07 18:49 | 39.65977 | 3.76429 | 13103 ft | 312 kts | 237° |
| 2026-05-07 18:49 | 39.64873 | 3.74004 | 12844 ft | 312 kts | 237° |
| 2026-05-07 18:50 | 39.63774 | 3.71591 | 12583 ft | 309 kts | 237° |
| 2026-05-07 18:50 | 39.62691 | 3.69210 | 12388 ft | 305 kts | 237° |
| 2026-05-07 18:50 | 39.61610 | 3.66835 | 12273 ft | 308 kts | 237° |
| 2026-05-07 18:50 | 39.60519 | 3.64442 | 12153 ft | 308 kts | 237° |
| 2026-05-07 18:51 | 39.59425 | 3.62045 | 11935 ft | 308 kts | 237° |
| 2026-05-07 18:51 | 39.58341 | 3.59667 | 11680 ft | 305 kts | 237° |
| 2026-05-07 18:51 | 39.57263 | 3.57307 | 11433 ft | 304 kts | 237° |
| 2026-05-07 18:51 | 39.56183 | 3.54945 | 11194 ft | 303 kts | 237° |
| 2026-05-07 18:52 | 39.55111 | 3.52603 | 10941 ft | 301 kts | 237° |
| 2026-05-07 18:52 | 39.54048 | 3.50283 | 10692 ft | 299 kts | 237° |
| 2026-05-07 18:52 | 39.52997 | 3.47990 | 10456 ft | 298 kts | 237° |
| 2026-05-07 18:52 | 39.51941 | 3.45686 | 10213 ft | 297 kts | 237° |
| 2026-05-07 18:53 | 39.50888 | 3.43390 | 9976 ft | 295 kts | 237° |
| 2026-05-07 18:53 | 39.49838 | 3.41104 | 9715 ft | 295 kts | 237° |
| 2026-05-07 18:53 | 39.48796 | 3.38833 | 9460 ft | 293 kts | 237° |
| 2026-05-07 18:53 | 39.47754 | 3.36568 | 9197 ft | 291 kts | 237° |
| 2026-05-07 18:54 | 39.46715 | 3.34313 | 8932 ft | 292 kts | 237° |
| 2026-05-07 18:54 | 39.45678 | 3.32060 | 8678 ft | 289 kts | 237° |
| 2026-05-07 18:54 | 39.44645 | 3.29822 | 8421 ft | 289 kts | 237° |
| 2026-05-07 18:54 | 39.43623 | 3.27596 | 8167 ft | 288 kts | 238° |
| 2026-05-07 18:55 | 39.42898 | 3.25171 | 7914 ft | 290 kts | 257° |
| 2026-05-07 18:55 | 39.42763 | 3.22572 | 7662 ft | 290 kts | 271° |
| 2026-05-07 18:55 | 39.42826 | 3.19973 | 7417 ft | 287 kts | 270° |
| 2026-05-07 18:55 | 39.42880 | 3.17435 | 7168 ft | 285 kts | 270° |
| 2026-05-07 18:56 | 39.42929 | 3.14859 | 6931 ft | 288 kts | 270° |
| 2026-05-07 18:56 | 39.42973 | 3.12277 | 6687 ft | 286 kts | 270° |
| 2026-05-07 18:56 | 39.43007 | 3.10168 | 6490 ft | 284 kts | 270° |
| 2026-05-07 18:56 | 39.43047 | 3.07619 | 6250 ft | 285 kts | 270° |
| 2026-05-07 18:57 | 39.43086 | 3.05060 | 5986 ft | 284 kts | 270° |
| 2026-05-07 18:57 | 39.43127 | 3.02519 | 5734 ft | 282 kts | 270° |
| 2026-05-07 18:57 | 39.43167 | 2.99984 | 5478 ft | 283 kts | 270° |
| 2026-05-07 18:57 | 39.43208 | 2.97451 | 5220 ft | 279 kts | 270° |
| 2026-05-07 18:58 | 39.43247 | 2.94940 | 5042 ft | 278 kts | 270° |
| 2026-05-07 18:58 | 39.43284 | 2.92438 | 5000 ft | 279 kts | 270° |
| 2026-05-07 18:58 | 39.43321 | 2.89914 | 5005 ft | 280 kts | 270° |
| 2026-05-07 18:58 | 39.43357 | 2.87397 | 5005 ft | 280 kts | 270° |
| 2026-05-07 18:59 | 39.43392 | 2.84887 | 5005 ft | 280 kts | 271° |
| 2026-05-07 18:59 | 39.43428 | 2.82373 | 4994 ft | 281 kts | 271° |
| 2026-05-07 18:59 | 39.43463 | 2.79863 | 5001 ft | 277 kts | 271° |
| 2026-05-07 18:59 | 39.43485 | 2.78217 | 4997 ft | 276 kts | 270° |
| 2026-05-07 19:00 | 39.43492 | 2.75730 | 5000 ft | 277 kts | 266° |
| 2026-05-07 19:00 | 39.43244 | 2.73243 | 5003 ft | 281 kts | 261° |
| 2026-05-07 19:00 | 39.42869 | 2.69928 | 4998 ft | 280 kts | 262° |
| 2026-05-07 19:00 | 39.42593 | 2.67436 | 5001 ft | 280 kts | 262° |
| 2026-05-07 19:01 | 39.42407 | 2.65748 | 5000 ft | 281 kts | 262° |
| 2026-05-07 19:01 | 39.42133 | 2.63246 | 4974 ft | 279 kts | 262° |
| 2026-05-07 19:01 | 39.41864 | 2.60798 | 4898 ft | 270 kts | 262° |
| 2026-05-07 19:01 | 39.41603 | 2.58435 | 4795 ft | 260 kts | 262° |
| 2026-05-07 19:02 | 39.41662 | 2.56198 | 4545 ft | 246 kts | 289° |
| 2026-05-07 19:02 | 39.42515 | 2.54378 | 4292 ft | 237 kts | 320° |
| 2026-05-07 19:02 | 39.43959 | 2.53399 | 4035 ft | 233 kts | 352° |
| 2026-05-07 19:02 | 39.45539 | 2.53512 | 3687 ft | 229 kts | 19° |
| 2026-05-07 19:03 | 39.46923 | 2.54467 | 3155 ft | 225 kts | 48° |
| 2026-05-07 19:03 | 39.47791 | 2.56134 | 2787 ft | 219 kts | 62° |
| 2026-05-07 19:03 | 39.48492 | 2.57823 | 2680 ft | 207 kts | 62° |
| 2026-05-07 19:03 | 39.49200 | 2.59389 | 2526 ft | 198 kts | 58° |
| 2026-05-07 19:04 | 39.49923 | 2.60914 | 2136 ft | 200 kts | 59° |
| 2026-05-07 19:04 | 39.50659 | 2.62466 | 1700 ft | 205 kts | 59° |
| 2026-05-07 19:04 | 39.51392 | 2.64020 | 1302 ft | 194 kts | 59° |
| 2026-05-07 19:04 | 39.52055 | 2.65429 | 1076 ft | 176 kts | 59° |
| 2026-05-07 19:05 | 39.52660 | 2.66708 | 825 ft | 156 kts | 59° |
| 2026-05-07 19:05 | 39.53188 | 2.67832 | 667 ft | 136 kts | 58° |
| 2026-05-07 19:05 | 39.53662 | 2.68844 | 407 ft | 128 kts | 57° |
| 2026-05-07 19:05 | 39.54104 | 2.69768 | 245 ft | 115 kts | 55° |
| 2026-05-07 19:06 | 39.54537 | 2.70689 | 138 ft | 126 kts | 57° |
| 2026-05-07 19:06 | 39.55380 | 2.72473 | 38 ft | 80 kts | 58° |
| 2026-05-07 19:06 | 39.55602 | 2.72937 | 38 ft | 51 kts | 57° |
| 2026-05-07 19:07 | 39.55713 | 2.73290 | 38 ft | 36 kts | 85° |
| 2026-05-07 19:07 | 39.55719 | 2.73458 | 38 ft | 0 kts | 88° |
| 2026-05-07 19:11 | 39.55720 | 2.73465 | 38 ft | 2 kts | 88° |
| 2026-05-07 19:11 | 39.55714 | 2.73504 | 36 ft | 7 kts | 115° |
| 2026-05-07 19:11 | 39.55659 | 2.73513 | 38 ft | 12 kts | 206° |
| 2026-05-07 19:11 | 39.55560 | 2.73539 | 37 ft | 17 kts | 135° |
| 2026-05-07 19:12 | 39.55491 | 2.73556 | 36 ft | 4 kts | 237° |
| 2026-05-07 19:12 | 39.55466 | 2.73495 | 38 ft | 12 kts | 240° |
| 2026-05-07 19:12 | 39.55386 | 2.73472 | 38 ft | 15 kts | 151° |
| 2026-05-07 19:12 | 39.55290 | 2.73547 | 38 ft | 17 kts | 149° |
| 2026-05-07 19:13 | 39.55188 | 2.73626 | 38 ft | 15 kts | 148° |
| 2026-05-07 19:13 | 39.55129 | 2.73589 | 38 ft | 11 kts | 236° |
| 2026-05-07 19:13 | 39.55084 | 2.73490 | 37 ft | 14 kts | 239° |
| 2026-05-07 19:13 | 39.55038 | 2.73392 | 38 ft | 0 kts | 238° |
| 2026-05-07 19:14 | 39.55031 | 2.73383 | 38 ft | 2 kts | 219° |
| 2026-05-07 19:14 | 39.55008 | 2.73384 | 38 ft | 5 kts | 172° |
| 2026-05-07 19:14 | 39.54979 | 2.73393 | 35 ft | 0 kts | 165° |
| 2026-05-07 19:14 | 39.54979 | 2.73394 | 36 ft | 0 kts | 165° |